Time;durP1;ratioP1;P1;durP2;ratioP2;P2;SDS_P1;SDS_P2;PMS_P1;PMS_P2;Temp;Humidity;BMP_temperature;BMP_pressure;BME280_temperature;BME280_humidity;BME280_pressure;Samples;Min_cycle;Max_cycle;Signal;HPM_P1;HPM_P2
2022/10/31 00:01:19;;;;;;;25.72;16.73;;;;;;;8.35;73.33;97605.38;1771653;79;25714;-76
2022/10/31 00:03:47;;;;;;;26.52;15.53;;;;;;;8.34;73.46;97601.84;1713024;83;27426;-73
2022/10/31 00:06:17;;;;;;;27.30;14.85;;;;;;;8.34;73.42;97604.53;1712822;83;25896;-74
2022/10/31 00:08:47;;;;;;;28.05;14.65;;;;;;;8.33;73.23;97606.11;1712821;83;25823;-75
2022/10/31 00:11:14;;;;;;;19.15;11.25;;;;;;;8.30;73.31;97604.59;1712839;82;25745;-76
2022/10/31 00:13:41;;;;;;;19.55;11.48;;;;;;;8.32;73.42;97599.06;1712868;83;25780;-76
2022/10/31 00:16:17;;;;;;;19.77;11.28;;;;;;;8.33;73.54;97604.25;1712602;83;28053;-73
2022/10/31 00:18:44;;;;;;;16.60;10.05;;;;;;;8.34;73.63;97607.73;1710764;83;25823;-75
2022/10/31 00:21:10;;;;;;;16.90;9.48;;;;;;;8.34;73.56;97609.09;1708979;83;25818;-73
2022/10/31 00:23:37;;;;;;;16.20;10.10;;;;;;;8.30;73.38;97606.77;1712917;83;25808;-75
2022/10/31 00:26:05;;;;;;;13.88;9.20;;;;;;;8.26;73.43;97612.71;1712948;83;25897;-73
2022/10/31 00:28:31;;;;;;;14.05;8.63;;;;;;;8.25;73.47;97611.05;1712576;83;27440;-75
2022/10/31 00:31:03;;;;;;;18.12;9.00;;;;;;;8.23;73.43;97607.20;1712696;83;25755;-73
2022/10/31 00:33:30;;;;;;;16.00;8.48;;;;;;;8.20;73.46;97614.33;1713082;83;25840;-75
2022/10/31 00:35:57;;;;;;;18.00;8.83;;;;;;;8.13;73.43;97611.23;1712916;83;25746;-74
2022/10/31 00:38:24;;;;;;;17.65;9.13;;;;;;;8.10;73.51;97615.13;1712873;83;25402;-75
2022/10/31 00:40:50;;;;;;;15.60;9.35;;;;;;;8.09;73.47;97618.83;1712921;83;28307;-74
2022/10/31 00:43:17;;;;;;;15.72;9.45;;;;;;;8.05;73.64;97619.42;1712861;83;25798;-74
2022/10/31 00:45:44;;;;;;;16.62;9.53;;;;;;;8.01;73.62;97618.96;1712510;83;25785;-76
2022/10/31 00:48:11;;;;;;;19.77;10.08;;;;;;;7.99;73.81;97621.52;1712954;83;25814;-75
2022/10/31 00:50:38;;;;;;;13.88;8.08;;;;;;;7.98;73.81;97618.50;1712545;83;25959;-75
2022/10/31 00:53:05;;;;;;;14.30;7.40;;;;;;;7.97;73.73;97617.67;1712996;83;28105;-76
2022/10/31 00:55:32;;;;;;;15.30;6.62;;;;;;;7.93;73.67;97613.71;1712726;83;25302;-75
2022/10/31 00:57:59;;;;;;;11.03;5.90;;;;;;;7.92;73.72;97618.25;1712840;83;25888;-74
2022/10/31 01:00:26;;;;;;;10.72;6.33;;;;;;;7.90;73.58;97621.64;1741603;80;25695;-73
2022/10/31 01:02:53;;;;;;;18.05;7.83;;;;;;;7.89;73.60;97620.48;1771558;81;25631;-74
2022/10/31 01:05:19;;;;;;;18.85;8.95;;;;;;;7.85;73.52;97620.02;1771777;81;27389;-76
2022/10/31 01:07:46;;;;;;;19.67;8.73;;;;;;;7.83;73.63;97618.05;1771718;80;25430;-74
2022/10/31 01:10:13;;;;;;;15.68;8.53;;;;;;;7.81;73.77;97615.22;1771623;81;25653;-76
2022/10/31 01:12:43;;;;;;;18.12;9.28;;;;;;;7.80;73.63;97622.96;1771602;81;26391;-76
2022/10/31 01:15:13;;;;;;;20.27;11.63;;;;;;;7.79;73.54;97618.61;1771996;80;25754;-75
2022/10/31 01:17:40;;;;;;;25.88;12.33;;;;;;;7.72;73.51;97618.55;1771731;80;27388;-74
2022/10/31 01:20:10;;;;;;;19.85;12.40;;;;;;;7.67;73.84;97613.39;1771532;81;25635;-74
2022/10/31 01:22:36;;;;;;;23.27;11.33;;;;;;;7.67;74.01;97618.27;1768474;81;25481;-76
2022/10/31 01:25:04;;;;;;;22.17;10.63;;;;;;;7.65;73.99;97615.43;1771729;81;26004;-73
2022/10/31 01:27:32;;;;;;;22.45;12.10;;;;;;;7.61;74.15;97608.78;1771763;81;25698;-73
2022/10/31 01:29:58;;;;;;;19.62;10.78;;;;;;;7.62;74.24;97618.48;1771732;81;27378;-75
2022/10/31 01:32:25;;;;;;;22.77;10.70;;;;;;;7.58;74.27;97614.85;1771841;81;25662;-72
2022/10/31 01:34:52;;;;;;;19.37;10.15;;;;;;;7.57;74.34;97615.87;1747728;81;25582;-73
2022/10/31 01:37:18;;;;;;;15.00;8.98;;;;;;;7.57;74.25;97615.87;1771735;81;25699;-73
2022/10/31 01:39:45;;;;;;;16.97;8.43;;;;;;;7.57;74.17;97617.21;1771746;80;25344;-73
2022/10/31 01:42:16;;;;;;;14.30;8.10;;;;;;;7.53;74.07;97610.54;1771839;79;27197;-73
2022/10/31 01:44:48;;;;;;;14.03;7.67;;;;;;;7.51;74.03;97609.89;1744620;81;25758;-72
2022/10/31 01:47:19;;;;;;;14.47;7.50;;;;;;;7.47;74.00;97608.62;1768723;81;32510;-76
2022/10/31 01:49:53;;;;;;;16.93;8.90;;;;;;;7.45;73.99;97610.65;1768322;80;25658;-74
2022/10/31 01:52:27;;;;;;;20.82;9.83;;;;;;;7.42;74.18;97602.95;1747094;82;25804;-76
2022/10/31 01:55:13;;;;;;;19.32;10.38;;;;;;;7.37;74.24;97606.70;1747848;82;27599;-72
2022/10/31 01:57:44;;;;;;;20.60;9.48;;;;;;;7.36;74.35;97609.09;1746404;82;25704;-73
2022/10/31 02:00:13;;;;;;;14.85;9.70;;;;;;;7.31;74.33;97606.12;1747527;82;25816;-73
2022/10/31 02:02:40;;;;;;;21.75;9.50;;;;;;;7.29;74.24;97609.49;1747419;82;25817;-76
2022/10/31 02:05:12;;;;;;;16.70;9.28;;;;;;;7.29;74.36;97609.49;1747580;82;25828;-72
2022/10/31 02:07:44;;;;;;;14.85;7.95;;;;;;;7.28;74.34;97605.14;1747762;82;29090;-73
2022/10/31 02:10:11;;;;;;;14.98;7.50;;;;;;;7.28;74.36;97603.80;1741832;82;25685;-74
2022/10/31 02:12:40;;;;;;;14.07;8.05;;;;;;;7.26;74.42;97608.52;1747848;82;25722;-74
2022/10/31 02:15:09;;;;;;;17.73;9.00;;;;;;;7.22;74.48;97607.23;1747351;82;26019;-73
2022/10/31 02:17:36;;;;;;;19.40;9.25;;;;;;;7.22;74.50;97605.39;1747569;82;25961;-76
2022/10/31 02:20:11;;;;;;;13.75;7.78;;;;;;;7.22;74.56;97609.41;1747582;82;28513;-73
2022/10/31 02:23:01;;;;;;;17.67;8.73;;;;;;;7.21;74.46;97598.86;1744888;82;25793;-71
2022/10/31 02:26:07;;;;;;;19.87;9.08;;;;;;;7.20;74.36;97601.22;1676325;85;25427;-75
2022/10/31 02:28:56;;;;;;;22.10;12.23;;;;;;;7.12;74.54;97599.97;1698144;84;25787;-73
2022/10/31 02:31:42;;;;;;;32.60;15.25;;;;;;;7.05;74.73;97596.34;1676699;85;25716;-73
2022/10/31 02:34:20;;;;;;;31.10;15.85;;;;;;;7.04;74.92;97594.67;1698599;84;27388;-72
2022/10/31 02:37:04;;;;;;;27.48;15.15;;;;;;;7.03;75.11;97593.01;1673112;85;25688;-73
2022/10/31 02:39:38;;;;;;;30.95;15.23;;;;;;;7.01;75.05;97593.19;1679137;85;25828;-73
2022/10/31 02:42:22;;;;;;;34.88;17.57;;;;;;;7.00;75.12;97593.40;1672033;85;25778;-74
2022/10/31 02:45:09;;;;;;;39.20;20.45;;;;;;;6.99;75.04;97593.91;1658007;86;25762;-73
2022/10/31 02:47:38;;;;;;;33.45;19.02;;;;;;;6.99;75.15;97601.13;1657332;86;28242;-73
2022/10/31 02:50:13;;;;;;;27.90;14.93;;;;;;;6.98;75.13;97596.77;1629444;87;25955;-73
2022/10/31 02:52:40;;;;;;;31.70;16.73;;;;;;;6.96;75.02;97598.30;1626275;87;25842;-73
2022/10/31 02:55:27;;;;;;;27.07;14.78;;;;;;;6.95;75.00;97606.02;1631966;86;25933;-72
2022/10/31 02:57:58;;;;;;;24.95;13.20;;;;;;;6.94;74.99;97604.85;1632092;87;25306;-72
2022/10/31 03:00:25;;;;;;;21.45;12.15;;;;;;;6.88;75.06;97608.28;1625985;88;27469;-75
2022/10/31 03:03:17;;;;;;;26.93;12.10;;;;;;;6.86;75.09;97617.34;1635476;87;25825;-73
2022/10/31 03:06:22;;;;;;;30.68;12.23;;;;;;;6.85;75.13;97613.00;1705671;83;25825;-72
2022/10/31 03:09:15;;;;;;;17.32;11.12;;;;;;;6.85;75.15;97615.67;1721740;83;25785;-74
2022/10/31 03:12:06;;;;;;;24.95;11.80;;;;;;;6.86;75.17;97624.06;1717798;83;25741;-75
2022/10/31 03:14:47;;;;;;;24.50;11.35;;;;;;;6.85;75.23;97621.05;1721695;83;27353;-72
2022/10/31 03:17:51;;;;;;;24.77;11.30;;;;;;;6.83;75.37;97627.09;1718074;83;25940;-73
2022/10/31 03:20:22;;;;;;;21.17;11.15;;;;;;;6.85;75.58;97627.75;1719128;83;25677;-73
2022/10/31 03:22:53;;;;;;;23.22;12.65;;;;;;;6.80;75.70;97626.62;1719035;83;25756;-73
2022/10/31 03:25:20;;;;;;;19.05;10.82;;;;;;;6.80;75.81;97631.48;1701702;83;25825;-74
2022/10/31 03:27:48;;;;;;;20.05;10.55;;;;;;;6.80;76.00;97628.80;1702209;84;28182;-73
2022/10/31 03:30:16;;;;;;;21.07;11.00;;;;;;;6.82;76.04;97630.80;1727605;83;25557;-72
2022/10/31 03:32:48;;;;;;;23.27;9.58;;;;;;;6.84;76.04;97627.94;1728076;83;25848;-74
2022/10/31 03:35:18;;;;;;;10.80;6.47;;;;;;;6.80;76.08;97632.81;1728251;83;25804;-74
2022/10/31 03:37:46;;;;;;;16.82;6.92;;;;;;;6.78;76.26;97633.50;1728007;83;25863;-75
2022/10/31 03:40:16;;;;;;;17.85;9.03;;;;;;;6.80;76.34;97635.50;1727971;83;28187;-73
2022/10/31 03:42:48;;;;;;;14.98;8.30;;;;;;;6.83;76.53;97638.34;1710135;83;25801;-73
2022/10/31 03:45:23;;;;;;;18.85;8.35;;;;;;;6.86;76.63;97638.81;1669820;85;25700;-74
2022/10/31 03:47:50;;;;;;;20.90;10.90;;;;;;;6.88;76.67;97636.76;1694482;84;25851;-74
2022/10/31 03:50:17;;;;;;;24.07;12.13;;;;;;;6.93;76.67;97644.27;1670944;85;25867;-73
2022/10/31 03:53:04;;;;;;;23.10;11.33;;;;;;;6.94;76.63;97641.08;1662764;86;27697;-72
2022/10/31 03:55:49;;;;;;;26.60;10.38;;;;;;;6.97;76.72;97644.75;1641003;87;25724;-75
2022/10/31 03:58:37;;;;;;;22.62;10.70;;;;;;;6.99;76.75;97649.44;1580733;90;26086;-74
2022/10/31 04:01:06;;;;;;;27.32;10.82;;;;;;;7.00;76.74;97643.89;1568998;91;26061;-73
2022/10/31 04:03:36;;;;;;;22.95;11.05;;;;;;;7.02;76.81;97644.51;1569040;91;25970;-76
2022/10/31 04:06:07;;;;;;;21.95;11.63;;;;;;;7.04;76.80;97641.64;1569063;91;27423;-74
2022/10/31 04:08:42;;;;;;;23.65;10.78;;;;;;;7.05;76.88;97643.31;1568926;90;25766;-74
2022/10/31 04:11:11;;;;;;;28.60;12.28;;;;;;;7.06;76.99;97640.45;1566863;91;25879;-75
2022/10/31 04:13:40;;;;;;;20.43;10.72;;;;;;;7.06;77.10;97642.30;1569097;91;25874;-74
2022/10/31 04:16:08;;;;;;;28.07;10.65;;;;;;;7.05;77.24;97640.63;1568868;90;25894;-77
2022/10/31 04:18:35;;;;;;;23.20;10.60;;;;;;;7.06;77.33;97644.98;1569058;91;27490;-76
2022/10/31 04:21:06;;;;;;;23.62;10.00;;;;;;;7.08;77.34;97642.95;1568657;91;25987;-74
2022/10/31 04:23:35;;;;;;;15.05;8.90;;;;;;;7.12;77.41;97638.90;1567761;91;25881;-73
2022/10/31 04:26:01;;;;;;;14.53;7.47;;;;;;;7.17;77.39;97633.80;1567896;91;26225;-75
2022/10/31 04:28:28;;;;;;;17.70;7.60;;;;;;;7.21;77.37;97633.25;1567953;91;25836;-74
2022/10/31 04:30:54;;;;;;;15.83;7.22;;;;;;;7.23;77.39;97633.07;1567764;91;27457;-73
2022/10/31 04:33:21;;;;;;;15.10;5.92;;;;;;;7.26;77.34;97633.19;1567903;91;25324;-76
2022/10/31 04:35:48;;;;;;;16.82;6.75;;;;;;;7.26;77.32;97632.67;1598200;88;25913;-73
2022/10/31 04:38:14;;;;;;;16.10;7.00;;;;;;;7.27;77.26;97637.03;1615607;88;25826;-73
2022/10/31 04:40:40;;;;;;;16.40;6.40;;;;;;;7.27;77.27;97637.03;1615629;87;25820;-73
2022/10/31 04:43:07;;;;;;;18.52;6.35;;;;;;;7.25;77.22;97641.75;1615556;88;28254;-73
2022/10/31 04:45:33;;;;;;;12.50;5.20;;;;;;;7.24;77.14;97638.77;1615539;88;25912;-74
2022/10/31 04:48:01;;;;;;;12.07;6.33;;;;;;;7.22;77.13;97637.61;1615465;88;37108;-73
2022/10/31 04:50:28;;;;;;;14.47;5.95;;;;;;;7.23;77.23;97642.47;1614446;87;26549;-73
2022/10/31 04:52:54;;;;;;;18.80;6.75;;;;;;;7.25;77.13;97641.75;1630540;87;25815;-72
2022/10/31 04:55:21;;;;;;;15.08;6.75;;;;;;;7.22;77.05;97640.80;1633993;87;28318;-73
2022/10/31 04:57:50;;;;;;;14.78;7.12;;;;;;;7.22;77.14;97643.48;1633888;87;25728;-73
2022/10/31 05:00:20;;;;;;;14.98;7.75;;;;;;;7.20;77.15;97640.14;1634227;87;25764;-75
2022/10/31 05:02:52;;;;;;;18.57;7.90;;;;;;;7.14;77.10;97647.58;1634086;87;26243;-74
2022/10/31 05:05:21;;;;;;;;;;;;;;;7.13;77.06;97649.94;1636546;87;25814;-75
2022/10/31 05:07:49;;;;;;;15.63;6.78;;;;;;;7.06;77.10;97650.35;1634003;87;27639;-73
2022/10/31 05:10:20;;;;;;;20.15;8.03;;;;;;;7.01;76.91;97651.39;1633874;87;25751;-73
2022/10/31 05:12:59;;;;;;;14.70;6.75;;;;;;;6.96;76.89;97649.79;1633902;87;25820;-73
2022/10/31 05:15:27;;;;;;;11.70;6.78;;;;;;;6.94;76.89;97649.12;1634059;87;26017;-76
2022/10/31 05:17:55;;;;;;;19.07;7.45;;;;;;;6.93;76.85;97651.48;1634063;87;25852;-74
2022/10/31 05:20:28;;;;;;;13.08;7.10;;;;;;;6.85;76.74;97651.91;1666943;84;27392;-74
2022/10/31 05:22:57;;;;;;;16.02;7.22;;;;;;;6.82;76.89;97650.92;1703097;83;25563;-73
2022/10/31 05:25:27;;;;;;;17.73;7.55;;;;;;;6.82;76.78;97656.28;1703214;83;25756;-73
2022/10/31 05:27:56;;;;;;;13.95;7.17;;;;;;;6.82;76.87;97662.16;1703205;84;25763;-74
2022/10/31 05:30:27;;;;;;;18.77;7.50;;;;;;;6.80;76.77;97657.47;1705229;84;25503;-74
2022/10/31 05:32:53;;;;;;;22.17;7.92;;;;;;;6.78;76.82;97650.94;1705284;84;28251;-77
2022/10/31 05:35:28;;;;;;;15.88;8.28;;;;;;;6.73;76.92;97656.03;1705474;83;25748;-74
2022/10/31 05:37:55;;;;;;;21.68;8.18;;;;;;;6.69;77.11;97664.62;1653795;86;25328;-75
2022/10/31 05:40:22;;;;;;;21.20;9.80;;;;;;;6.66;77.27;97660.44;1653716;86;25810;-73
2022/10/31 05:42:52;;;;;;;19.05;10.00;;;;;;;6.65;77.34;97665.47;1653595;86;25793;-73
2022/10/31 05:45:19;;;;;;;21.27;10.28;;;;;;;6.67;77.34;97669.32;1653465;86;26485;-73
2022/10/31 05:47:59;;;;;;;20.37;9.75;;;;;;;6.67;77.40;97666.13;1653658;86;25772;-73
2022/10/31 05:50:28;;;;;;;23.92;13.00;;;;;;;6.68;77.35;97665.12;1626595;88;25745;-73
2022/10/31 05:52:59;;;;;;;34.23;13.62;;;;;;;6.71;77.35;97665.27;1627168;88;25776;-76
2022/10/31 05:55:26;;;;;;;23.27;11.80;;;;;;;6.70;77.37;97667.13;1576965;90;25860;-75
2022/10/31 05:57:54;;;;;;;26.55;13.78;;;;;;;6.71;77.31;97673.32;1576920;90;28781;-73
2022/10/31 06:00:22;;;;;;;35.52;16.17;;;;;;;6.66;77.30;97669.83;1576927;90;25798;-74
2022/10/31 06:02:49;;;;;;;34.03;16.37;;;;;;;6.68;77.36;97676.36;1577036;90;25888;-73
2022/10/31 06:05:16;;;;;;;34.90;17.75;;;;;;;6.68;77.34;97681.22;1576999;90;25790;-73
2022/10/31 06:07:43;;;;;;;54.58;28.57;;;;;;;6.70;77.35;97684.56;1577131;90;25774;-75
2022/10/31 06:10:10;;;;;;;46.02;24.72;;;;;;;6.69;77.38;97686.91;1577082;90;27673;-75
2022/10/31 06:12:37;;;;;;;48.20;26.90;;;;;;;6.70;77.49;97689.92;1576866;90;25783;-75
2022/10/31 06:15:06;;;;;;;44.70;23.07;;;;;;;6.71;77.59;97692.94;1576984;90;25842;-73
2022/10/31 06:17:35;;;;;;;42.58;21.57;;;;;;;6.74;77.55;97691.75;1577065;90;25811;-73
2022/10/31 06:20:03;;;;;;;42.48;22.93;;;;;;;6.76;77.54;97691.87;1577149;90;26526;-73
2022/10/31 06:22:30;;;;;;;40.05;24.52;;;;;;;6.79;77.60;97697.39;1577077;90;27443;-73
2022/10/31 06:24:56;;;;;;;49.23;23.12;;;;;;;6.82;77.65;97699.22;1576912;90;26473;-73
2022/10/31 06:27:23;;;;;;;51.00;22.52;;;;;;;6.85;77.71;97697.52;1576951;90;25897;-74
2022/10/31 06:29:50;;;;;;;44.48;21.37;;;;;;;6.88;77.75;97699.52;1577008;90;25927;-76
2022/10/31 06:32:18;;;;;;;40.95;19.25;;;;;;;6.90;77.88;97700.98;1576936;90;25807;-75
2022/10/31 06:34:47;;;;;;;35.68;19.30;;;;;;;6.93;77.94;97703.82;1597388;88;28079;-72
2022/10/31 06:37:14;;;;;;;44.03;17.95;;;;;;;6.97;78.03;97704.63;1615133;88;25932;-73
2022/10/31 06:39:40;;;;;;;38.30;17.20;;;;;;;7.00;78.10;97708.30;1615093;88;26849;-73
2022/10/31 06:42:07;;;;;;;29.57;15.38;;;;;;;7.05;78.26;97713.11;1610513;88;25785;-73
2022/10/31 06:44:33;;;;;;;21.75;12.03;;;;;;;7.06;78.42;97706.72;1594465;89;25769;-76
2022/10/31 06:47:00;;;;;;;32.13;13.65;;;;;;;7.09;78.58;97711.73;1594835;89;27603;-73
2022/10/31 06:49:26;;;;;;;24.52;11.55;;;;;;;7.17;78.66;97714.33;1595597;89;26076;-73
2022/10/31 06:51:54;;;;;;;22.45;10.28;;;;;;;7.24;78.88;97713.95;1608535;87;25855;-75
2022/10/31 06:54:21;;;;;;;24.23;9.58;;;;;;;7.32;79.03;97715.20;1630763;87;25811;-73
2022/10/31 06:56:47;;;;;;;20.90;10.30;;;;;;;7.39;79.09;97714.78;1630847;87;25531;-74
2022/10/31 06:59:15;;;;;;;24.10;10.23;;;;;;;7.48;79.20;97716.38;1665568;85;27600;-76
2022/10/31 07:01:42;;;;;;;23.57;9.13;;;;;;;7.55;79.34;97714.61;1709906;83;25712;-72
2022/10/31 07:04:11;;;;;;;17.87;10.20;;;;;;;7.67;79.50;97712.30;1715993;83;25708;-75
2022/10/31 07:06:37;;;;;;;25.85;11.10;;;;;;;7.74;79.54;97710.52;1716294;83;26387;-73
2022/10/31 07:09:04;;;;;;;22.50;11.03;;;;;;;7.83;79.54;97715.31;1716156;83;25913;-73
2022/10/31 07:11:31;;;;;;;26.50;10.93;;;;;;;7.91;79.61;97712.01;1716438;83;27435;-74
2022/10/31 07:13:57;;;;;;;20.77;10.43;;;;;;;8.01;79.72;97709.53;1715917;83;25770;-76
2022/10/31 07:16:24;;;;;;;28.30;11.25;;;;;;;8.11;79.95;97712.24;1692502;83;25792;-76
2022/10/31 07:18:51;;;;;;;18.60;11.05;;;;;;;8.24;79.96;97713.75;1723235;82;25663;-73
2022/10/31 07:21:17;;;;;;;20.37;10.18;;;;;;;8.37;79.91;97706.89;1741327;82;25682;-73
2022/10/31 07:23:44;;;;;;;21.48;10.48;;;;;;;8.49;79.92;97716.13;1741241;82;27420;-73
2022/10/31 07:26:11;;;;;;;30.17;10.60;;;;;;;8.59;79.99;97718.82;1737591;82;25733;-75
2022/10/31 07:28:37;;;;;;;23.57;11.30;;;;;;;8.74;80.14;97720.63;1741398;81;25749;-75
2022/10/31 07:31:04;;;;;;;30.35;11.63;;;;;;;8.89;80.14;97714.67;1740891;82;25770;-73
2022/10/31 07:33:30;;;;;;;25.60;12.23;;;;;;;9.04;80.35;97714.09;1741179;82;25674;-74
2022/10/31 07:35:57;;;;;;;22.65;11.35;;;;;;;9.20;80.33;97713.79;1741178;82;27370;-74
2022/10/31 07:38:24;;;;;;;21.80;9.98;;;;;;;9.38;80.36;97712.80;1740968;81;25685;-73
2022/10/31 07:40:55;;;;;;;18.85;7.83;;;;;;;9.56;80.26;97717.68;1741370;82;25908;-73
2022/10/31 07:43:22;;;;;;;18.17;7.90;;;;;;;9.75;80.30;97712.95;1741259;82;26042;-73
2022/10/31 07:45:53;;;;;;;21.77;7.40;;;;;;;9.95;80.32;97706.30;1742300;81;25663;-72
2022/10/31 07:48:20;;;;;;;15.28;6.28;;;;;;;10.16;80.16;97712.61;1744386;82;27358;-74
2022/10/31 07:50:47;;;;;;;28.98;7.53;;;;;;;10.33;80.08;97709.40;1745609;82;26038;-74
2022/10/31 07:53:15;;;;;;;15.68;8.60;;;;;;;10.53;79.98;97706.75;1747233;81;25793;-75
2022/10/31 07:55:43;;;;;;;15.58;8.15;;;;;;;10.75;80.06;97704.72;1747661;82;25915;-72
2022/10/31 07:58:14;;;;;;;20.12;9.23;;;;;;;10.97;79.78;97701.34;1747746;82;25696;-73
2022/10/31 08:00:43;;;;;;;23.67;10.18;;;;;;;11.16;79.60;97698.64;1687930;84;27488;-75
2022/10/31 08:03:14;;;;;;;18.20;8.20;;;;;;;11.37;79.42;97703.50;1687776;84;25696;-73
2022/10/31 08:05:42;;;;;;;21.27;8.33;;;;;;;11.56;79.23;97701.32;1687885;84;25779;-75
2022/10/31 08:08:09;;;;;;;13.78;6.62;;;;;;;11.75;79.17;97696.41;1688090;84;25803;-73
2022/10/31 08:10:36;;;;;;;14.47;6.25;;;;;;;11.95;79.00;97695.55;1687974;84;25806;-72
2022/10/31 08:13:10;;;;;;;12.85;6.12;;;;;;;12.17;78.69;97696.92;1687973;84;27549;-73
2022/10/31 08:15:39;;;;;;;18.48;6.55;;;;;;;12.39;78.38;97694.22;1632072;86;25891;-75
2022/10/31 08:18:11;;;;;;;17.23;6.97;;;;;;;12.58;78.16;97687.85;1632053;87;25939;-73
2022/10/31 08:20:37;;;;;;;18.53;7.67;;;;;;;12.78;77.63;97695.05;1632640;87;25711;-73
2022/10/31 08:23:05;;;;;;;25.05;8.05;;;;;;;12.98;77.41;97693.02;1632159;87;25803;-74
2022/10/31 08:25:34;;;;;;;16.82;7.37;;;;;;;13.21;77.32;97693.81;1632075;87;27223;-74
2022/10/31 08:28:02;;;;;;;14.78;7.12;;;;;;;13.44;77.19;97693.20;1631981;87;25820;-75
2022/10/31 08:30:32;;;;;;;20.88;7.33;;;;;;;13.67;77.16;97694.22;1631975;87;25840;-72
2022/10/31 08:33:10;;;;;;;10.40;6.25;;;;;;;13.94;76.70;97693.42;1632188;87;26382;-72
2022/10/31 08:35:37;;;;;;;20.48;6.50;;;;;;;14.17;76.18;97686.48;1582069;90;25739;-73
2022/10/31 08:38:04;;;;;;;19.20;7.50;;;;;;;14.37;75.80;97685.69;1581691;90;27387;-73
2022/10/31 08:40:33;;;;;;;15.68;5.95;;;;;;;14.54;75.22;97681.33;1581627;90;25887;-72
2022/10/31 08:43:04;;;;;;;10.35;5.12;;;;;;;14.74;74.96;97681.04;1580819;90;25872;-72
2022/10/31 08:45:33;;;;;;;12.73;5.45;;;;;;;14.99;74.64;97690.39;1581597;90;25431;-76
2022/10/31 08:48:06;;;;;;;18.30;5.97;;;;;;;15.23;74.14;97681.23;1581673;90;25744;-72
2022/10/31 08:50:35;;;;;;;15.00;6.22;;;;;;;15.47;73.95;97686.98;1581712;90;27390;-72
2022/10/31 08:53:15;;;;;;;12.85;6.25;;;;;;;15.69;73.39;97683.73;1561111;90;25528;-73
2022/10/31 08:55:43;;;;;;;26.05;6.78;;;;;;;15.89;72.90;97681.47;1526886;93;25871;-73
2022/10/31 08:58:13;;;;;;;11.38;5.35;;;;;;;16.11;72.53;97681.12;1535545;92;25424;-75
2022/10/31 09:00:40;;;;;;;15.08;5.42;;;;;;;16.31;72.14;97682.08;1531400;93;26230;-74
2022/10/31 09:03:17;;;;;;;14.83;5.70;;;;;;;16.48;71.63;97676.71;1531573;93;27394;-72
2022/10/31 09:05:45;;;;;;;12.00;5.12;;;;;;;16.63;71.00;97675.69;1531536;93;25844;-74
2022/10/31 09:08:12;;;;;;;15.55;5.15;;;;;;;16.76;70.50;97678.12;1531589;93;25849;-73
2022/10/31 09:10:39;;;;;;;13.95;5.67;;;;;;;16.91;70.05;97678.38;1531565;93;25823;-73
2022/10/31 09:13:13;;;;;;;17.00;5.40;;;;;;;17.06;69.83;97675.64;1590789;88;25896;-72
2022/10/31 09:15:43;;;;;;;12.30;4.60;;;;;;;17.23;69.20;97669.14;1599228;89;27623;-73
2022/10/31 09:18:12;;;;;;;14.75;5.58;;;;;;;17.36;68.51;97665.26;1584803;90;25764;-73
2022/10/31 09:20:40;;;;;;;14.33;4.37;;;;;;;17.54;68.48;97670.44;1599355;89;25838;-73
2022/10/31 09:23:14;;;;;;;16.80;4.83;;;;;;;17.72;68.07;97668.56;1599572;89;26132;-73
2022/10/31 09:25:41;;;;;;;14.53;4.42;;;;;;;17.89;67.80;97669.34;1585066;90;25814;-73
2022/10/31 09:28:12;;;;;;;15.40;4.50;;;;;;;18.03;67.20;97669.28;1599391;89;27448;-72
2022/10/31 09:30:40;;;;;;;14.05;4.60;;;;;;;18.17;66.36;97662.37;1584980;90;25854;-74
2022/10/31 09:33:10;;;;;;;10.45;4.08;;;;;;;18.30;65.24;97668.00;1599444;89;25715;-73
2022/10/31 09:35:37;;;;;;;11.48;4.85;;;;;;;18.44;65.24;97665.70;1599426;89;25886;-73
2022/10/31 09:38:19;;;;;;;16.70;5.95;;;;;;;18.57;64.60;97662.58;1585283;90;26002;-76
2022/10/31 09:40:51;;;;;;;17.25;5.08;;;;;;;18.72;64.78;97661.39;1599600;89;28360;-74
2022/10/31 09:43:41;;;;;;;19.50;7.67;;;;;;;18.90;64.32;97661.05;1579212;90;32534;-73
2022/10/31 09:46:22;;;;;;;22.98;7.60;;;;;;;19.02;64.01;97659.52;1599578;89;25829;-75
2022/10/31 09:49:23;;;;;;;28.15;9.48;;;;;;;19.16;63.67;97664.03;1612915;87;25554;-76
2022/10/31 09:51:58;;;;;;;26.12;11.30;;;;;;;19.30;63.59;97663.89;1638866;85;25942;-73
2022/10/31 09:54:36;;;;;;;25.95;12.98;;;;;;;19.51;63.23;97657.52;1626847;88;27485;-73
2022/10/31 09:57:04;;;;;;;25.30;13.48;;;;;;;19.62;62.32;97653.77;1624286;86;25812;-73
2022/10/31 09:59:37;;;;;;;25.37;12.33;;;;;;;19.68;62.33;97657.38;1605420;88;25894;-74
2022/10/31 10:02:39;;;;;;;25.15;12.20;;;;;;;19.84;62.64;97658.28;1614879;87;25717;-75
2022/10/31 10:05:17;;;;;;;23.83;11.38;;;;;;;19.99;62.46;97648.25;1591876;88;25847;-73
2022/10/31 10:08:12;;;;;;;23.83;11.00;;;;;;;20.19;62.24;97652.99;1532174;93;27443;-74
2022/10/31 10:10:55;;;;;;;16.75;7.87;;;;;;;20.40;61.83;97648.48;1531977;93;25890;-72
2022/10/31 10:13:49;;;;;;;17.75;7.80;;;;;;;20.62;61.36;97652.39;1478116;93;25462;-74
2022/10/31 10:16:38;;;;;;;17.98;7.60;;;;;;;20.82;61.25;97645.58;1426045;100;25906;-72
2022/10/31 10:19:49;;;;;;;19.27;6.00;;;;;;;21.00;60.76;97646.45;1425865;100;25891;-75
2022/10/31 10:22:36;;;;;;;15.08;5.58;;;;;;;21.38;59.38;97640.98;1428219;100;27430;-73
2022/10/31 10:25:39;;;;;;;15.83;7.33;;;;;;;21.38;59.38;97640.98;1419943;101;25915;-75
2022/10/31 10:28:37;;;;;;;16.20;6.85;;;;;;;21.72;58.61;97641.26;1420109;101;25849;-73
2022/10/31 10:31:08;;;;;;;18.95;6.65;;;;;;;21.72;58.61;97641.26;1420694;100;25773;-75
2022/10/31 10:34:04;;;;;;;23.50;6.33;;;;;;;21.89;58.24;97625.27;1425984;100;25409;-74
2022/10/31 10:36:42;;;;;;;17.73;5.95;;;;;;;22.21;57.82;97636.49;1425885;100;27447;-75
2022/10/31 10:39:20;;;;;;;14.43;5.55;;;;;;;22.37;57.11;97629.81;1429245;100;25811;-73
2022/10/31 10:47:40;;;;;;;12.10;5.60;;;;;;;22.93;56.52;97629.00;1433256;100;26017;-73
2022/10/31 10:50:23;;;;;;;13.60;5.30;;;;;;;23.13;55.82;97621.70;1370892;101;27517;-72
2022/10/31 10:53:07;;;;;;;14.63;5.58;;;;;;;23.34;55.74;97628.69;1405207;101;25897;-72
2022/10/31 10:56:08;;;;;;;18.27;6.75;;;;;;;23.57;55.22;97621.63;1399408;102;25929;-72
2022/10/31 10:58:37;;;;;;;19.85;6.47;;;;;;;23.83;54.54;97620.27;1438466;97;25430;-72
2022/10/31 11:01:13;;;;;;;20.25;6.10;;;;;;;24.12;54.06;97615.28;1470018;96;25615;-74
2022/10/31 11:03:41;;;;;;;16.35;6.25;;;;;;;24.37;53.66;97617.22;1493591;91;27460;-73
2022/10/31 11:06:25;;;;;;;14.70;4.87;;;;;;;24.54;52.77;97611.19;1561253;91;26213;-73
2022/10/31 11:08:52;;;;;;;17.80;5.45;;;;;;;24.69;52.21;97615.13;1561279;90;25851;-73
2022/10/31 11:11:30;;;;;;;17.85;5.95;;;;;;;24.96;51.33;97610.91;1561068;91;26373;-76
2022/10/31 11:14:15;;;;;;;17.12;5.37;;;;;;;25.09;51.19;97613.75;1561185;91;25884;-74
2022/10/31 11:16:50;;;;;;;15.98;5.70;;;;;;;25.28;50.79;97611.51;1559374;91;28144;-74
2022/10/31 11:19:25;;;;;;;17.90;4.87;;;;;;;25.47;50.17;97611.75;1498505;95;25858;-71
2022/10/31 11:21:51;;;;;;;14.70;4.30;;;;;;;25.61;49.51;97602.68;1498487;95;25820;-73
2022/10/31 11:24:21;;;;;;;13.68;5.15;;;;;;;25.68;47.13;97607.27;1498280;95;25778;-75
2022/10/31 11:26:50;;;;;;;19.35;3.80;;;;;;;25.57;48.08;97603.84;1509472;92;25960;-75
2022/10/31 11:29:26;;;;;;;12.85;4.83;;;;;;;25.69;47.44;97602.00;1558139;92;27490;-76
2022/10/31 11:31:56;;;;;;;10.90;4.60;;;;;;;25.77;47.52;97604.06;1558052;92;25854;-73
2022/10/31 11:34:45;;;;;;;13.25;4.15;;;;;;;25.91;46.77;97599.38;1558255;92;25976;-77
2022/10/31 11:37:29;;;;;;;9.43;4.25;;;;;;;25.92;45.96;97598.81;1556068;92;26383;-73
2022/10/31 11:39:59;;;;;;;15.25;5.12;;;;;;;25.99;45.86;97598.65;1558091;92;25861;-73
2022/10/31 11:42:30;;;;;;;17.15;4.42;;;;;;;26.04;45.34;97599.95;1558198;92;27614;-73
2022/10/31 11:44:57;;;;;;;13.55;3.83;;;;;;;26.13;45.10;97593.95;1558518;92;25805;-73
2022/10/31 11:47:31;;;;;;;17.37;4.65;;;;;;;26.20;44.90;97595.73;1648159;84;25783;-76
2022/10/31 11:50:04;;;;;;;11.28;4.60;;;;;;;26.32;44.50;97595.84;1690293;84;25741;-74
2022/10/31 11:52:32;;;;;;;21.33;4.90;;;;;;;26.34;44.26;97592.17;1687392;84;25765;-72
2022/10/31 11:55:07;;;;;;;13.08;4.10;;;;;;;26.50;43.98;97592.11;1688116;84;28075;-73